Crown Princess — ZCDM6 — position and weather

sailwx.info

Track history (hours):
 
Tides and Currents Weather Stations Pressure Air Temp Water Temp Dewpoint Dewpoint Depression Visibility Wind Speed Wind Dir Waves Ship Positions

Crown Princess

Last reported at 2018-Feb-19 00:35 UTC. Time now 2018-Feb-19 10:14 UTC.
Position N 25°25' W 079°40'.

Type: Passenger vessel. MMSI: 310500000.

Date/timePositionNaut miles runAvg speedWind from/ knotsBaromVisibWave heightAir tempDewpointWater temp
2018-Feb-19 00:35N 25°25' W 079°40'418.5
2018-Feb-19 00:23N 25°29' W 079°40'717.9
2018-Feb-19 00:00N 25°35' W 079°40'817.0
2018-Feb-18 23:30N 25°44' W 079°40'817.0
2018-Feb-18 23:00N 25°51' W 079°46'918.3
2018-Feb-18 22:30N 25°57' W 079°54'918.3
2018-Feb-18 22:00N 26°02' W 080°02'611.2
2018-Feb-18 21:30N 26°06' W 080°07'1 1.2
2018-Feb-18 21:00N 26°06' W 080°07'0 0.0
2018-Feb-18 20:30N 26°06' W 080°07'0 0.0
2018-Feb-18 20:00N 26°06' W 080°07'0 0.0
2018-Feb-18 19:29N 26°06' W 080°07'0 0.0
2018-Feb-18 18:59N 26°06' W 080°07'0 0.0
2018-Feb-18 18:29N 26°06' W 080°07'0 0.0
2018-Feb-18 17:59N 26°06' W 080°07'0 0.0
2018-Feb-18 17:29N 26°06' W 080°07'0 0.0
2018-Feb-18 16:58N 26°06' W 080°07'0 0.0
2018-Feb-18 16:28N 26°06' W 080°07'0 0.0
2018-Feb-18 15:58N 26°06' W 080°07'0 0.0
2018-Feb-18 15:28N 26°06' W 080°07'0 0.0
2018-Feb-18 15:00N 26°06' W 080°07'0 0.0
2018-Feb-18 14:30N 26°06' W 080°07'0 0.0
2018-Feb-18 14:00N 26°06' W 080°07'0 0.0
2018-Feb-18 13:30N 26°06' W 080°07'0 0.0
2018-Feb-18 13:00N 26°06' W 080°07'0 0.0
2018-Feb-18 12:29N 26°06' W 080°07'0 0.3
2018-Feb-18 12:00N 26°06' W 080°07'2 5.0
2018-Feb-18 11:31N 26°06' W 080°04'4 7.4
2018-Feb-18 11:01N 26°05' W 080°00'3 6.9
2018-Feb-18 10:30N 26°03' W 079°58'612.8
2018-Feb-18 10:00N 25°58' W 079°53'714.7
2018-Feb-18 09:31N 25°52' W 079°48'714.8
2018-Feb-18 09:00N 25°46' W 079°43'815.9
2018-Feb-18 08:31N 25°39' W 079°40'918.5
2018-Feb-18 08:00N 25°29' W 079°38'815.6
2018-Feb-18 07:30N 25°22' W 079°36'7817.2
2018-Feb-18 03:00N 24°06' W 079°18'21618.0 100 / 221022.7 24.520.226.0
2018-Feb-17 15:00N 21°36' W 076°30'61917.7 090 / 191021.710.8 25.019.625.0
2018-Feb-16 04:00N 13°30' W 069°48'   060 / 391016.6 26.520.523.0
2018-Feb-11 00:11N 25°35' W 079°39'316.7
2018-Feb-11 00:00N 25°38' W 079°40'816.5
2018-Feb-10 23:30N 25°46' W 079°43'816.2
2018-Feb-10 23:00N 25°52' W 079°48'816.5
2018-Feb-10 22:30N 25°58' W 079°55'815.9
2018-Feb-10 22:00N 26°03' W 080°02'5 9.4
2018-Feb-10 21:30N 26°06' W 080°06'1 1.3
2018-Feb-10 21:00N 26°06' W 080°07'0 0.0
2018-Feb-10 20:30N 26°06' W 080°07'0 0.0
2018-Feb-10 19:59N 26°06' W 080°07'0 0.0
2018-Feb-10 19:29N 26°06' W 080°07'0 0.0
2018-Feb-10 18:59N 26°06' W 080°07'0 0.0
2018-Feb-10 18:29N 26°06' W 080°07'0 0.0
2018-Feb-10 17:59N 26°06' W 080°07'0 0.0
2018-Feb-10 17:28N 26°06' W 080°07'0 0.0
2018-Feb-10 16:58N 26°06' W 080°07'0 0.0
2018-Feb-10 16:28N 26°06' W 080°07'0 0.0
2018-Feb-10 15:58N 26°06' W 080°07'0 0.0
2018-Feb-10 15:30N 26°06' W 080°07'0 0.0
2018-Feb-10 15:00N 26°06' W 080°07'0 0.0
2018-Feb-10 14:30N 26°06' W 080°07'0 0.0
2018-Feb-10 14:00N 26°06' W 080°07'0 0.0
2018-Feb-10 13:30N 26°06' W 080°07'0 0.0
2018-Feb-10 12:59N 26°06' W 080°07'0 0.0
2018-Feb-10 12:29N 26°06' W 080°07'0 0.0
2018-Feb-10 11:59N 26°06' W 080°07'0 0.6
2018-Feb-10 11:30N 26°06' W 080°07'4 7.6
2018-Feb-10 11:00N 26°06' W 080°03'4 8.3
2018-Feb-10 10:30N 26°05' W 079°58'713.1
2018-Feb-10 10:00N 26°06' W 079°51'611.6
2018-Feb-10 09:30N 26°07' W 079°45'712.7
2018-Feb-10 08:59N 26°08' W 079°38'613.0
2018-Feb-10 08:30N 26°09' W 079°31'712.8
2018-Feb-10 07:59N 26°10' W 079°23'612.6
2018-Feb-10 07:30N 26°11' W 079°17'19856.5
2018-Feb-10 04:00N 23°00' W 078°18'35814.3 090 / 201023.410.8 23.622.225.0
2018-Feb-09 03:00N 22°12' W 071°54'   080 / 281022.010.8 25.120.125.0
Track history (hours):
 
Tides and Currents Weather Stations Pressure Air Temp Water Temp Dewpoint Dewpoint Depression Visibility Wind Speed Wind Dir Waves Ship Positions

Crown Princess

Last reported at 2018-Feb-19 00:35 UTC. Time now 2018-Feb-19 10:14 UTC.
Position N 25°25' W 079°40'.

Type: Passenger vessel. MMSI: 310500000.

Date/timePositionNaut miles runAvg speedWind from/ knotsBaromVisibWave heightAir tempDewpointWater temp
2018-Feb-19 00:35N 25°25' W 079°40'418.5
2018-Feb-19 00:23N 25°29' W 079°40'717.9
2018-Feb-19 00:00N 25°35' W 079°40'817.0
2018-Feb-18 23:30N 25°44' W 079°40'817.0
2018-Feb-18 23:00N 25°51' W 079°46'918.3
2018-Feb-18 22:30N 25°57' W 079°54'918.3
2018-Feb-18 22:00N 26°02' W 080°02'611.2
2018-Feb-18 21:30N 26°06' W 080°07'1 1.2
2018-Feb-18 21:00N 26°06' W 080°07'0 0.0
2018-Feb-18 20:30N 26°06' W 080°07'0 0.0
2018-Feb-18 20:00N 26°06' W 080°07'0 0.0
2018-Feb-18 19:29N 26°06' W 080°07'0 0.0
2018-Feb-18 18:59N 26°06' W 080°07'0 0.0
2018-Feb-18 18:29N 26°06' W 080°07'0 0.0
2018-Feb-18 17:59N 26°06' W 080°07'0 0.0
2018-Feb-18 17:29N 26°06' W 080°07'0 0.0
2018-Feb-18 16:58N 26°06' W 080°07'0 0.0
2018-Feb-18 16:28N 26°06' W 080°07'0 0.0
2018-Feb-18 15:58N 26°06' W 080°07'0 0.0
2018-Feb-18 15:28N 26°06' W 080°07'0 0.0
2018-Feb-18 15:00N 26°06' W 080°07'0 0.0
2018-Feb-18 14:30N 26°06' W 080°07'0 0.0
2018-Feb-18 14:00N 26°06' W 080°07'0 0.0
2018-Feb-18 13:30N 26°06' W 080°07'0 0.0
2018-Feb-18 13:00N 26°06' W 080°07'0 0.0
2018-Feb-18 12:29N 26°06' W 080°07'0 0.3
2018-Feb-18 12:00N 26°06' W 080°07'2 5.0
2018-Feb-18 11:31N 26°06' W 080°04'4 7.4
2018-Feb-18 11:01N 26°05' W 080°00'3 6.9
2018-Feb-18 10:30N 26°03' W 079°58'612.8
2018-Feb-18 10:00N 25°58' W 079°53'714.7
2018-Feb-18 09:31N 25°52' W 079°48'714.8
2018-Feb-18 09:00N 25°46' W 079°43'815.9
2018-Feb-18 08:31N 25°39' W 079°40'918.5
2018-Feb-18 08:00N 25°29' W 079°38'815.6
2018-Feb-18 07:30N 25°22' W 079°36'7817.2
2018-Feb-18 03:00N 24°06' W 079°18'21618.0 100 / 221022.7 24.520.226.0
2018-Feb-17 15:00N 21°36' W 076°30'61917.7 090 / 191021.710.8 25.019.625.0
2018-Feb-16 04:00N 13°30' W 069°48'   060 / 391016.6 26.520.523.0
2018-Feb-11 00:11N 25°35' W 079°39'316.7
2018-Feb-11 00:00N 25°38' W 079°40'816.5
2018-Feb-10 23:30N 25°46' W 079°43'816.2
2018-Feb-10 23:00N 25°52' W 079°48'816.5
2018-Feb-10 22:30N 25°58' W 079°55'815.9
2018-Feb-10 22:00N 26°03' W 080°02'5 9.4
2018-Feb-10 21:30N 26°06' W 080°06'1 1.3
2018-Feb-10 21:00N 26°06' W 080°07'0 0.0
2018-Feb-10 20:30N 26°06' W 080°07'0 0.0
2018-Feb-10 19:59N 26°06' W 080°07'0 0.0
2018-Feb-10 19:29N 26°06' W 080°07'0 0.0
2018-Feb-10 18:59N 26°06' W 080°07'0 0.0
2018-Feb-10 18:29N 26°06' W 080°07'0 0.0
2018-Feb-10 17:59N 26°06' W 080°07'0 0.0
2018-Feb-10 17:28N 26°06' W 080°07'0 0.0
2018-Feb-10 16:58N 26°06' W 080°07'0 0.0
2018-Feb-10 16:28N 26°06' W 080°07'0 0.0
2018-Feb-10 15:58N 26°06' W 080°07'0 0.0
2018-Feb-10 15:30N 26°06' W 080°07'0 0.0
2018-Feb-10 15:00N 26°06' W 080°07'0 0.0
2018-Feb-10 14:30N 26°06' W 080°07'0 0.0
2018-Feb-10 14:00N 26°06' W 080°07'0 0.0
2018-Feb-10 13:30N 26°06' W 080°07'0 0.0
2018-Feb-10 12:59N 26°06' W 080°07'0 0.0
2018-Feb-10 12:29N 26°06' W 080°07'0 0.0
2018-Feb-10 11:59N 26°06' W 080°07'0 0.6
2018-Feb-10 11:30N 26°06' W 080°07'4 7.6
2018-Feb-10 11:00N 26°06' W 080°03'4 8.3
2018-Feb-10 10:30N 26°05' W 079°58'713.1
2018-Feb-10 10:00N 26°06' W 079°51'611.6
2018-Feb-10 09:30N 26°07' W 079°45'712.7
2018-Feb-10 08:59N 26°08' W 079°38'613.0
2018-Feb-10 08:30N 26°09' W 079°31'712.8
2018-Feb-10 07:59N 26°10' W 079°23'612.6
2018-Feb-10 07:30N 26°11' W 079°17'19856.5
2018-Feb-10 04:00N 23°00' W 078°18'35814.3 090 / 201023.410.8 23.622.225.0
2018-Feb-09 03:00N 22°12' W 071°54'   080 / 281022.010.8 25.120.125.0

Dump ship's entire track history